Time;durP1;ratioP1;P1;durP2;ratioP2;P2;SDS_P1;SDS_P2;PMS_P1;PMS_P2;Temp;Humidity;BMP_temperature;BMP_pressure;BME280_temperature;BME280_humidity;BME280_pressure;Samples;Min_cycle;Max_cycle;Signal;HPM_P1;HPM_P2
2022/08/24 00:02:18;;;;;;;12.35;4.93;;;;;;;;;;5045153;28;20052;-71
2022/08/24 00:04:49;;;;;;;8.48;4.78;;;;;;;;;;5045659;28;20063;-70
2022/08/24 00:07:20;;;;;;;8.15;5.22;;;;;;;;;;5046026;28;20052;-72
2022/08/24 00:09:56;;;;;;;9.13;5.15;;;;;;;;;;5046088;28;20045;-72
2022/08/24 00:12:27;;;;;;;9.70;6.72;;;;;;;;;;5046330;28;20049;-72
2022/08/24 00:14:58;;;;;;;14.25;5.30;;;;;;;;;;5046333;28;20056;-74
2022/08/24 00:17:28;;;;;;;10.73;6.00;;;;;;;;;;5046500;28;20049;-73
2022/08/24 00:19:59;;;;;;;11.93;5.32;;;;;;;;;;5045741;28;20049;-71
2022/08/24 00:22:28;;;;;;;9.63;6.40;;;;;;;;;;5045794;28;20045;-72
2022/08/24 00:24:58;;;;;;;11.05;5.50;;;;;;;;;;5046255;28;20064;-72
2022/08/24 00:27:28;;;;;;;10.05;5.35;;;;;;;;;;5046080;28;20049;-73
2022/08/24 00:29:58;;;;;;;11.95;5.07;;;;;;;;;;5046028;28;20758;-72
2022/08/24 00:32:28;;;;;;;10.40;5.20;;;;;;;;;;5045621;28;20048;-73
2022/08/24 00:34:59;;;;;;;9.45;5.15;;;;;;;;;;5046028;28;20072;-73
2022/08/24 00:37:29;;;;;;;10.48;6.25;;;;;;;;;;5028236;28;20060;-72
2022/08/24 00:39:58;;;;;;;11.27;5.85;;;;;;;;;;5045934;28;20037;-72
2022/08/24 00:42:29;;;;;;;15.15;5.50;;;;;;;;;;5046076;28;21175;-72
2022/08/24 00:44:58;;;;;;;10.68;5.13;;;;;;;;;;5044263;28;20563;-72
2022/08/24 00:47:36;;;;;;;10.18;5.65;;;;;;;;;;5046081;28;20048;-72
2022/08/24 00:50:11;;;;;;;10.82;6.07;;;;;;;;;;5027172;28;20648;-73
2022/08/24 00:52:49;;;;;;;11.48;5.13;;;;;;;;;;5046410;28;20049;-72
2022/08/24 00:55:32;;;;;;;7.72;4.82;;;;;;;;;;5045764;28;20622;-72
2022/08/24 00:58:08;;;;;;;11.93;5.78;;;;;;;;;;5045094;28;20515;-71
2022/08/24 01:00:48;;;;;;;10.38;6.03;;;;;;;;;;5069221;28;20047;-74
2022/08/24 01:03:19;;;;;;;10.68;5.65;;;;;;;;;;5073942;28;20036;-71
2022/08/24 01:05:48;;;;;;;13.00;6.38;;;;;;;;;;5070660;28;20040;-71
2022/08/24 01:08:20;;;;;;;11.02;5.55;;;;;;;;;;5069628;28;20072;-72
2022/08/24 01:10:55;;;;;;;11.95;6.25;;;;;;;;;;5067190;28;20561;-71
2022/08/24 01:13:27;;;;;;;11.65;5.88;;;;;;;;;;5067245;28;20044;-72
2022/08/24 01:16:04;;;;;;;13.63;6.50;;;;;;;;;;5069833;28;20385;-72
2022/08/24 01:18:51;;;;;;;10.73;6.93;;;;;;;;;;5052041;28;20534;-72
2022/08/24 01:21:33;;;;;;;11.48;7.07;;;;;;;;;;5068684;28;20052;-72
2022/08/24 01:24:10;;;;;;;8.82;6.13;;;;;;;;;;5067276;28;20056;-72
2022/08/24 01:26:45;;;;;;;10.80;6.13;;;;;;;;;;5067154;28;20072;-72
2022/08/24 01:29:20;;;;;;;11.80;6.15;;;;;;;;;;5066260;28;20057;-72
2022/08/24 01:31:52;;;;;;;11.48;6.28;;;;;;;;;;5065575;28;20052;-71
2022/08/24 01:34:22;;;;;;;9.40;6.68;;;;;;;;;;5066492;28;20530;-71
2022/08/24 01:36:59;;;;;;;13.43;7.45;;;;;;;;;;5067207;28;20036;-72
2022/08/24 01:39:38;;;;;;;12.25;7.38;;;;;;;;;;5065351;28;20411;-74
2022/08/24 01:42:10;;;;;;;11.82;6.88;;;;;;;;;;5066881;28;20056;-72
2022/08/24 01:44:43;;;;;;;10.75;6.68;;;;;;;;;;5065903;28;20052;-72
2022/08/24 01:47:16;;;;;;;15.02;7.85;;;;;;;;;;5066420;28;20068;-71
2022/08/24 01:49:48;;;;;;;10.20;7.05;;;;;;;;;;5068586;28;20051;-72
2022/08/24 01:52:25;;;;;;;13.15;7.75;;;;;;;;;;5066442;28;20056;-71
2022/08/24 01:55:15;;;;;;;13.32;7.60;;;;;;;;;;5067842;28;20060;-70
2022/08/24 01:57:50;;;;;;;14.90;8.40;;;;;;;;;;5068053;28;20423;-72
2022/08/24 02:00:21;;;;;;;17.38;8.93;;;;;;;;;;5069293;28;20040;-71
2022/08/24 02:02:52;;;;;;;14.07;8.15;;;;;;;;;;5066303;28;20051;-71
2022/08/24 02:05:24;;;;;;;15.07;8.55;;;;;;;;;;5066879;28;20053;-71
2022/08/24 02:07:57;;;;;;;13.52;8.98;;;;;;;;;;5067021;28;20060;-71
2022/08/24 02:10:28;;;;;;;14.35;9.07;;;;;;;;;;5066584;28;20771;-71
2022/08/24 02:12:59;;;;;;;18.13;9.13;;;;;;;;;;5068526;28;20052;-73
2022/08/24 02:15:38;;;;;;;15.77;9.50;;;;;;;;;;5065707;28;20056;-71
2022/08/24 02:18:11;;;;;;;15.85;9.82;;;;;;;;;;5066224;28;20063;-71
2022/08/24 02:20:44;;;;;;;16.70;9.60;;;;;;;;;;5065833;28;20059;-71
2022/08/24 02:23:14;;;;;;;17.50;9.48;;;;;;;;;;5066815;28;20056;-71
2022/08/24 02:25:44;;;;;;;19.27;10.50;;;;;;;;;;5065643;28;20071;-71
2022/08/24 02:28:13;;;;;;;17.20;11.30;;;;;;;;;;5068526;28;20052;-71
2022/08/24 02:30:44;;;;;;;19.60;10.82;;;;;;;;;;5066959;28;20411;-72
2022/08/24 02:33:14;;;;;;;21.23;11.93;;;;;;;;;;5066413;28;20052;-71
2022/08/24 02:35:44;;;;;;;18.58;11.07;;;;;;;;;;5066375;28;20439;-71
2022/08/24 02:38:14;;;;;;;18.58;10.77;;;;;;;;;;5065396;28;20067;-71
2022/08/24 02:40:44;;;;;;;21.73;10.35;;;;;;;;;;5065985;28;20052;-71
2022/08/24 02:43:14;;;;;;;19.50;11.35;;;;;;;;;;5065747;28;20052;-71
2022/08/24 02:45:46;;;;;;;18.05;10.57;;;;;;;;;;5066185;28;20460;-71
2022/08/24 02:48:21;;;;;;;17.65;9.50;;;;;;;;;;5065318;28;20052;-71
2022/08/24 02:50:52;;;;;;;20.40;11.75;;;;;;;;;;5065827;28;20044;-71
2022/08/24 02:53:23;;;;;;;19.00;11.43;;;;;;;;;;5066354;28;20055;-71
2022/08/24 02:55:53;;;;;;;23.05;12.95;;;;;;;;;;5065602;28;20045;-72
2022/08/24 02:58:23;;;;;;;21.52;13.05;;;;;;;;;;5066690;28;20067;-72
2022/08/24 03:00:53;;;;;;;20.38;11.85;;;;;;;;;;5066065;28;20059;-71
2022/08/24 03:03:23;;;;;;;22.90;12.23;;;;;;;;;;5066498;28;20052;-71
2022/08/24 03:05:53;;;;;;;24.95;12.85;;;;;;;;;;5067294;28;20060;-71
2022/08/24 03:08:23;;;;;;;24.30;13.88;;;;;;;;;;5065463;28;20048;-71
2022/08/24 03:10:59;;;;;;;23.08;13.13;;;;;;;;;;5066772;28;20048;-71
2022/08/24 03:13:30;;;;;;;27.15;13.48;;;;;;;;;;5065588;28;20056;-71
2022/08/24 03:16:00;;;;;;;29.52;16.50;;;;;;;;;;5067369;28;20158;-71
2022/08/24 03:18:32;;;;;;;34.88;16.73;;;;;;;;;;5065287;28;20061;-71
2022/08/24 03:21:05;;;;;;;29.88;15.40;;;;;;;;;;5065368;28;20063;-71
2022/08/24 03:23:40;;;;;;;23.58;12.95;;;;;;;;;;5065441;28;20055;-71
2022/08/24 03:26:12;;;;;;;25.92;15.63;;;;;;;;;;5063873;28;20056;-70
2022/08/24 03:28:42;;;;;;;28.30;15.75;;;;;;;;;;5065763;28;20747;-72
2022/08/24 03:31:13;;;;;;;28.48;15.27;;;;;;;;;;5065292;28;20648;-71
2022/08/24 03:33:43;;;;;;;27.75;15.05;;;;;;;;;;5066963;28;20095;-72
2022/08/24 03:36:13;;;;;;;25.38;15.25;;;;;;;;;;5064662;28;20860;-71
2022/08/24 03:38:43;;;;;;;28.05;13.77;;;;;;;;;;5065283;28;20519;-72
2022/08/24 03:41:15;;;;;;;24.92;15.27;;;;;;;;;;5065669;28;20495;-72
2022/08/24 03:43:47;;;;;;;33.80;18.25;;;;;;;;;;5065425;28;20053;-71
2022/08/24 03:46:23;;;;;;;26.15;15.88;;;;;;;;;;5064674;28;20060;-72
2022/08/24 03:48:56;;;;;;;32.13;19.33;;;;;;;;;;5066980;28;20052;-71
2022/08/24 03:51:28;;;;;;;42.95;20.95;;;;;;;;;;5064989;28;20403;-72
2022/08/24 03:53:59;;;;;;;31.65;17.63;;;;;;;;;;5065018;28;20059;-71
2022/08/24 03:56:30;;;;;;;31.00;17.77;;;;;;;;;;5066210;28;20060;-71
2022/08/24 03:59:03;;;;;;;28.52;17.20;;;;;;;;;;5064508;28;20502;-71
2022/08/24 04:01:38;;;;;;;30.40;16.10;;;;;;;;;;5064992;28;20538;-71
2022/08/24 04:04:09;;;;;;;31.08;17.48;;;;;;;;;;5065113;28;20057;-72
2022/08/24 04:06:43;;;;;;;27.65;16.33;;;;;;;;;;5066572;28;20048;-72
2022/08/24 04:09:14;;;;;;;30.05;15.30;;;;;;;;;;5064716;28;20495;-73
2022/08/24 04:11:47;;;;;;;34.25;18.08;;;;;;;;;;5064849;28;21278;-71
2022/08/24 04:14:23;;;;;;;32.10;18.92;;;;;;;;;;5064926;28;20419;-72
2022/08/24 04:17:08;;;;;;;28.92;16.80;;;;;;;;;;5064882;28;20075;-71
2022/08/24 04:19:56;;;;;;;29.15;18.13;;;;;;;;;;5064135;28;20415;-72
2022/08/24 04:22:36;;;;;;;32.05;18.70;;;;;;;;;;5063744;28;20057;-71
2022/08/24 04:25:06;;;;;;;33.67;17.08;;;;;;;;;;5066423;28;20053;-72
2022/08/24 04:27:40;;;;;;;34.83;18.65;;;;;;;;;;5064768;28;20547;-71
2022/08/24 04:30:11;;;;;;;32.47;17.48;;;;;;;;;;5064519;28;20052;-72
2022/08/24 04:33:05;;;;;;;31.90;18.30;;;;;;;;;;5064291;28;20504;-72
2022/08/24 04:35:40;;;;;;;29.52;17.58;;;;;;;;;;5064641;28;20053;-71
2022/08/24 04:38:11;;;;;;;31.75;19.33;;;;;;;;;;5065405;28;20071;-71
2022/08/24 04:40:47;;;;;;;27.55;17.40;;;;;;;;;;5067725;28;20048;-72
2022/08/24 04:43:18;;;;;;;29.17;16.83;;;;;;;;;;5067778;28;20059;-71
2022/08/24 04:45:50;;;;;;;27.13;14.65;;;;;;;;;;5067770;28;20527;-72
2022/08/24 04:48:22;;;;;;;30.80;16.25;;;;;;;;;;5068006;28;20534;-71
2022/08/24 04:50:52;;;;;;;26.88;16.27;;;;;;;;;;5068237;28;20041;-71
2022/08/24 04:53:22;;;;;;;30.35;16.33;;;;;;;;;;5069578;28;20091;-70
2022/08/24 04:55:52;;;;;;;29.92;17.30;;;;;;;;;;5067730;28;20052;-72
2022/08/24 04:58:25;;;;;;;25.58;15.57;;;;;;;;;;5067603;28;20065;-71
2022/08/24 05:00:56;;;;;;;27.25;15.05;;;;;;;;;;5050959;28;20053;-71
2022/08/24 05:03:27;;;;;;;27.13;15.30;;;;;;;;;;5068128;28;20071;-72
2022/08/24 05:05:58;;;;;;;27.33;14.57;;;;;;;;;;5069201;28;20048;-71
2022/08/24 05:08:28;;;;;;;29.88;17.15;;;;;;;;;;5067658;28;20060;-71
2022/08/24 05:10:58;;;;;;;26.20;15.70;;;;;;;;;;5067590;28;20056;-72
2022/08/24 05:13:28;;;;;;;24.33;13.75;;;;;;;;;;5067898;28;20060;-71
2022/08/24 05:15:58;;;;;;;26.95;13.35;;;;;;;;;;5067812;28;20063;-71
2022/08/24 05:18:28;;;;;;;22.55;12.98;;;;;;;;;;5067457;28;20053;-71
2022/08/24 05:20:58;;;;;;;26.70;13.00;;;;;;;;;;5067018;28;20496;-71
2022/08/24 05:23:29;;;;;;;21.13;11.75;;;;;;;;;;5067801;28;20064;-72
2022/08/24 05:26:09;;;;;;;20.98;12.20;;;;;;;;;;5067423;28;20048;-71
2022/08/24 05:28:40;;;;;;;19.55;10.73;;;;;;;;;;5067008;28;20853;-71
2022/08/24 05:31:13;;;;;;;18.92;10.45;;;;;;;;;;5068736;28;20491;-71
2022/08/24 05:33:43;;;;;;;18.55;9.07;;;;;;;;;;5067700;28;20052;-71
2022/08/24 05:36:21;;;;;;;16.92;9.35;;;;;;;;;;5067438;28;20051;-71
2022/08/24 05:38:54;;;;;;;19.77;10.95;;;;;;;;;;5067375;28;20055;-72
2022/08/24 05:41:25;;;;;;;16.45;9.85;;;;;;;;;;5067134;28;20048;-72
2022/08/24 05:44:02;;;;;;;21.88;10.30;;;;;;;;;;5066591;28;20419;-72
2022/08/24 05:46:35;;;;;;;19.13;10.15;;;;;;;;;;5067196;28;20053;-72
2022/08/24 05:49:07;;;;;;;16.13;7.70;;;;;;;;;;5066537;28;20060;-72
2022/08/24 05:51:38;;;;;;;14.82;9.05;;;;;;;;;;5066857;28;20048;-72
2022/08/24 05:54:12;;;;;;;13.95;8.13;;;;;;;;;;5066535;28;20053;-71
2022/08/24 05:57:00;;;;;;;14.95;7.75;;;;;;;;;;5066116;28;20056;-72
2022/08/24 05:59:34;;;;;;;11.73;6.47;;;;;;;;;;5067374;28;20059;-71
2022/08/24 06:02:14;;;;;;;11.90;6.57;;;;;;;;;;5067032;28;20051;-72
2022/08/24 06:04:45;;;;;;;12.65;6.72;;;;;;;;;;5068747;28;20510;-71
2022/08/24 06:07:15;;;;;;;15.38;7.10;;;;;;;;;;5066444;28;20059;-71
2022/08/24 06:09:53;;;;;;;15.65;7.65;;;;;;;;;;5066851;28;20052;-71
2022/08/24 06:12:24;;;;;;;14.88;7.68;;;;;;;;;;5066946;28;20052;-71
2022/08/24 06:14:53;;;;;;;15.95;7.60;;;;;;;;;;5066522;28;20055;-71
2022/08/24 06:17:24;;;;;;;14.70;7.32;;;;;;;;;;5050214;28;20057;-72
2022/08/24 06:19:55;;;;;;;14.43;6.80;;;;;;;;;;5066443;28;20045;-72
2022/08/24 06:22:25;;;;;;;10.80;6.28;;;;;;;;;;5067927;28;20047;-71
2022/08/24 06:27:44;;;;;;;11.60;5.88;;;;;;;;;;5066195;28;20056;-71
2022/08/24 06:30:14;;;;;;;11.88;6.43;;;;;;;;;;5065923;28;20052;-72
2022/08/24 06:33:00;;;;;;;13.55;6.45;;;;;;;;;;5066101;28;20091;-71
2022/08/24 06:35:43;;;;;;;11.70;6.35;;;;;;;;;;5066121;28;20049;-71
2022/08/24 06:38:15;;;;;;;11.00;5.88;;;;;;;;;;5066019;28;20071;-70
2022/08/24 06:40:50;;;;;;;11.07;5.88;;;;;;;;;;5065536;28;20064;-70
2022/08/24 06:43:21;;;;;;;10.57;6.20;;;;;;;;;;5066127;28;20049;-71
2022/08/24 06:45:55;;;;;;;10.90;5.88;;;;;;;;;;5065670;28;20059;-70
2022/08/24 06:48:31;;;;;;;11.55;6.57;;;;;;;;;;5066322;28;20056;-70
2022/08/24 06:51:06;;;;;;;14.88;6.70;;;;;;;;;;5066196;28;20419;-71
2022/08/24 06:53:39;;;;;;;9.90;5.38;;;;;;;;;;5065588;28;20052;-71
2022/08/24 06:56:11;;;;;;;9.95;5.30;;;;;;;;;;5065457;28;20059;-70
2022/08/24 06:58:44;;;;;;;12.25;6.18;;;;;;;;;;5064991;28;20415;-71
2022/08/24 07:01:21;;;;;;;11.75;5.95;;;;;;;;;;5049496;28;20053;-71
2022/08/24 07:03:52;;;;;;;9.82;5.22;;;;;;;;;;5067136;28;20048;-71
2022/08/24 07:06:41;;;;;;;11.77;5.47;;;;;;;;;;5068573;28;20835;-70
2022/08/24 07:09:13;;;;;;;11.20;5.55;;;;;;;;;;5049539;28;20062;-71
2022/08/24 07:11:44;;;;;;;12.20;5.80;;;;;;;;;;5065582;28;20422;-70
2022/08/24 07:14:13;;;;;;;12.20;5.22;;;;;;;;;;5066813;28;20056;-73
2022/08/24 07:16:43;;;;;;;9.52;5.72;;;;;;;;;;5065549;28;20055;-70
2022/08/24 07:19:13;;;;;;;;;;;;;;;;;;5067628;28;20059;-71
2022/08/24 07:21:42;;;;;;;10.23;4.70;;;;;;;;;;5063912;28;19921;-73
2022/08/24 07:24:12;;;;;;;;;;;;;;;;;;5065860;28;20044;-73
2022/08/24 07:26:42;;;;;;;9.75;4.95;;;;;;;;;;5065398;28;19931;-72
2022/08/24 07:29:14;;;;;;;13.68;5.72;;;;;;;;;;5066851;28;20045;-73
2022/08/24 07:32:05;;;;;;;9.95;5.05;;;;;;;;;;5065432;28;20053;-73
2022/08/24 07:34:38;;;;;;;10.95;5.63;;;;;;;;;;5065848;28;20048;-73
2022/08/24 07:37:08;;;;;;;11.43;5.43;;;;;;;;;;5066854;28;20049;-72
2022/08/24 07:39:42;;;;;;;11.07;5.82;;;;;;;;;;5065471;28;20044;-72
2022/08/24 07:42:12;;;;;;;11.85;5.25;;;;;;;;;;5064963;28;20503;-71
2022/08/24 07:44:54;;;;;;;11.30;6.00;;;;;;;;;;5064892;28;20052;-72
2022/08/24 07:47:24;;;;;;;9.63;4.97;;;;;;;;;;5064775;28;20053;-72
2022/08/24 07:50:20;;;;;;;8.55;5.65;;;;;;;;;;5064472;28;20079;-72
2022/08/24 07:52:51;;;;;;;11.55;5.90;;;;;;;;;;5066301;28;20047;-71
2022/08/24 07:55:21;;;;;;;8.70;5.32;;;;;;;;;;5065422;28;20063;-73
2022/08/24 07:57:51;;;;;;;9.25;5.78;;;;;;;;;;5066690;28;20056;-72
2022/08/24 08:00:21;;;;;;;8.57;5.57;;;;;;;;;;5065147;28;20423;-72
2022/08/24 08:02:58;;;;;;;10.63;5.25;;;;;;;;;;5065059;28;20388;-73
2022/08/24 08:05:30;;;;;;;9.43;4.95;;;;;;;;;;5064677;28;20060;-71
2022/08/24 08:08:01;;;;;;;11.48;5.82;;;;;;;;;;5064811;28;20423;-72
2022/08/24 08:10:34;;;;;;;9.02;4.65;;;;;;;;;;5064534;28;20056;-72
2022/08/24 08:13:08;;;;;;;10.00;4.70;;;;;;;;;;5067258;28;20049;-72
2022/08/24 08:15:38;;;;;;;10.85;5.72;;;;;;;;;;5068704;28;20052;-71
2022/08/24 08:18:12;;;;;;;8.90;5.43;;;;;;;;;;5068564;28;20079;-73
2022/08/24 08:20:42;;;;;;;12.25;5.30;;;;;;;;;;5052535;28;20048;-72
2022/08/24 08:26:19;;;;;;;9.55;5.78;;;;;;;;;;5068457;28;20051;-72
2022/08/24 08:29:05;;;;;;;9.02;5.03;;;;;;;;;;5068168;28;20052;-72
2022/08/24 08:31:37;;;;;;;6.88;4.40;;;;;;;;;;5070158;28;20051;-72
2022/08/24 08:34:09;;;;;;;9.55;4.97;;;;;;;;;;5069654;28;20511;-72
2022/08/24 08:36:50;;;;;;;8.02;4.65;;;;;;;;;;5069500;28;20447;-72
2022/08/24 08:39:22;;;;;;;11.75;5.18;;;;;;;;;;5070075;28;20048;-72
2022/08/24 08:41:59;;;;;;;10.15;5.38;;;;;;;;;;5068151;28;20063;-72
2022/08/24 08:45:05;;;;;;;10.98;5.55;;;;;;;;;;5068104;28;20538;-72
2022/08/24 08:48:02;;;;;;;11.60;6.13;;;;;;;;;;5068630;28;20154;-72
2022/08/24 08:51:15;;;;;;;10.55;5.65;;;;;;;;;;5067407;28;20111;-72
2022/08/24 08:54:01;;;;;;;9.13;4.68;;;;;;;;;;5032242;28;20056;-72
2022/08/24 08:56:55;;;;;;;9.70;4.95;;;;;;;;;;5067407;28;20056;-72
2022/08/24 08:59:46;;;;;;;7.35;4.10;;;;;;;;;;5068183;28;20052;-72
2022/08/24 09:02:42;;;;;;;7.18;4.25;;;;;;;;;;5068065;28;20040;-72
2022/08/24 09:05:20;;;;;;;8.85;5.35;;;;;;;;;;5067677;28;20056;-72
2022/08/24 09:07:52;;;;;;;;;;;;;;;;;;5070185;28;20040;-72
2022/08/24 09:10:28;;;;;;;10.85;4.25;;;;;;;;;;5067142;28;19924;-75
2022/08/24 09:13:20;;;;;;;12.85;5.68;;;;;;;;;;5067801;28;20430;-72
2022/08/24 09:16:21;;;;;;;9.10;5.18;;;;;;;;;;5067797;28;20499;-72
2022/08/24 09:19:07;;;;;;;12.13;4.35;;;;;;;;;;5067517;28;20053;-72
2022/08/24 09:21:46;;;;;;;8.57;5.18;;;;;;;;;;5067385;28;20056;-72
2022/08/24 09:24:29;;;;;;;8.95;5.10;;;;;;;;;;5066468;28;20044;-72
2022/08/24 09:27:15;;;;;;;12.30;5.57;;;;;;;;;;5067409;28;20400;-72
2022/08/24 09:29:52;;;;;;;11.30;4.80;;;;;;;;;;5067627;28;20053;-73
2022/08/24 09:32:42;;;;;;;12.30;4.80;;;;;;;;;;5069185;28;20048;-73
2022/08/24 09:35:22;;;;;;;9.15;5.43;;;;;;;;;;5068840;28;20040;-71
2022/08/24 09:38:01;;;;;;;11.05;6.18;;;;;;;;;;5068842;28;20048;-73
2022/08/24 09:40:43;;;;;;;13.73;6.18;;;;;;;;;;5068866;28;20053;-70
2022/08/24 09:43:44;;;;;;;14.93;6.10;;;;;;;;;;5068163;28;20048;-73
2022/08/24 09:46:44;;;;;;;9.32;5.90;;;;;;;;;;5068834;28;20407;-74
2022/08/24 09:49:20;;;;;;;16.25;7.55;;;;;;;;;;5068333;28;20044;-71
2022/08/24 09:52:12;;;;;;;20.88;6.78;;;;;;;;;;5068671;28;20514;-71
2022/08/24 09:55:08;;;;;;;9.38;5.93;;;;;;;;;;5068866;28;20045;-72
2022/08/24 09:57:39;;;;;;;14.20;7.07;;;;;;;;;;5066530;28;20052;-72
2022/08/24 10:00:45;;;;;;;10.43;5.97;;;;;;;;;;5068336;28;20044;-73
2022/08/24 10:03:36;;;;;;;13.80;6.18;;;;;;;;;;5067467;28;20055;-72
2022/08/24 10:06:13;;;;;;;12.65;5.95;;;;;;;;;;5064947;28;20048;-71
2022/08/24 10:08:51;;;;;;;13.88;6.43;;;;;;;;;;5068073;28;20411;-71
2022/08/24 10:11:47;;;;;;;12.70;5.80;;;;;;;;;;5067964;28;20084;-75
2022/08/24 10:14:35;;;;;;;9.73;5.03;;;;;;;;;;5066564;28;20500;-72
2022/08/24 10:17:42;;;;;;;10.02;5.07;;;;;;;;;;5066846;28;20053;-72
2022/08/24 10:20:28;;;;;;;9.98;5.13;;;;;;;;;;5067715;28;20044;-73
2022/08/24 10:23:25;;;;;;;13.02;4.88;;;;;;;;;;5068397;28;20055;-72
2022/08/24 10:26:31;;;;;;;13.38;5.53;;;;;;;;;;5067679;28;20430;-71
2022/08/24 10:29:16;;;;;;;14.02;6.00;;;;;;;;;;5067824;28;20049;-72
2022/08/24 10:32:16;;;;;;;12.05;5.57;;;;;;;;;;5068020;28;20059;-71
2022/08/24 10:35:01;;;;;;;8.60;5.38;;;;;;;;;;5067720;28;20794;-71
2022/08/24 10:39:39;;;;;;;15.45;7.50;;;;;;;;;;5067599;28;20522;-72
2022/08/24 10:41:11;;;;;;;15.75;8.27;;;;;;;;;;5067661;28;20048;-71
2022/08/24 10:43:54;;;;;;;12.90;5.60;;;;;;;;;;5067646;28;20036;-71
2022/08/24 10:46:43;;;;;;;15.43;6.53;;;;;;;;;;5067732;28;20047;-72
2022/08/24 10:49:36;;;;;;;24.42;8.45;;;;;;;;;;5067082;28;20052;-74
2022/08/24 10:52:24;;;;;;;18.50;6.53;;;;;;;;;;5065943;28;20051;-72
2022/08/24 10:54:56;;;;;;;20.83;6.05;;;;;;;;;;5067614;28;20048;-73
2022/08/24 10:57:54;;;;;;;15.40;6.38;;;;;;;;;;5067368;28;20723;-73
2022/08/24 11:00:28;;;;;;;12.32;6.10;;;;;;;;;;5066486;28;20517;-72
2022/08/24 11:03:15;;;;;;;11.13;5.43;;;;;;;;;;5067245;28;20040;-72
2022/08/24 11:05:48;;;;;;;7.43;4.65;;;;;;;;;;5067419;28;20051;-73
2022/08/24 11:08:22;;;;;;;8.65;4.72;;;;;;;;;;5067500;28;20058;-72
2022/08/24 11:11:12;;;;;;;12.00;5.40;;;;;;;;;;5066750;28;20055;-71
2022/08/24 11:14:11;;;;;;;7.82;4.72;;;;;;;;;;5066768;28;20538;-71
2022/08/24 11:16:44;;;;;;;6.78;4.40;;;;;;;;;;5051108;28;20063;-72
2022/08/24 11:19:44;;;;;;;17.30;8.32;;;;;;;;;;5071834;28;20502;-72
2022/08/24 11:22:36;;;;;;;19.75;8.18;;;;;;;;;;5054856;28;20048;-74
2022/08/24 11:25:18;;;;;;;12.35;7.15;;;;;;;;;;5066974;28;20044;-73
2022/08/24 11:27:52;;;;;;;13.00;7.43;;;;;;;;;;5066630;28;20067;-73
2022/08/24 11:30:26;;;;;;;13.82;6.57;;;;;;;;;;5066814;28;20048;-73
2022/08/24 11:33:03;;;;;;;13.52;6.35;;;;;;;;;;5067072;28;20052;-73
2022/08/24 11:35:33;;;;;;;11.40;6.68;;;;;;;;;;5066994;28;20045;-71
2022/08/24 11:38:15;;;;;;;11.52;6.00;;;;;;;;;;5066465;28;20063;-70
2022/08/24 11:40:51;;;;;;;44.78;18.00;;;;;;;;;;5066836;28;20048;-72
2022/08/24 11:43:36;;;;;;;;;;;;;;;;;;5065631;28;20071;-72
2022/08/24 11:46:36;;;;;;;14.25;6.15;;;;;;;;;;5065956;28;19931;-72
2022/08/24 11:49:07;;;;;;;13.38;5.30;;;;;;;;;;5066811;28;20044;-72
2022/08/24 11:51:49;;;;;;;11.90;5.60;;;;;;;;;;5066697;28;20060;-72
2022/08/24 11:54:49;;;;;;;11.60;5.47;;;;;;;;;;5066930;28;20071;-72
2022/08/24 11:57:54;;;;;;;5.20;3.47;;;;;;;;;;5066850;28;20041;-73
2022/08/24 12:00:33;;;;;;;9.15;5.38;;;;;;;;;;5067045;28;20045;-72
2022/08/24 12:03:06;;;;;;;8.10;4.07;;;;;;;;;;5066365;28;20052;-73
2022/08/24 12:05:44;;;;;;;11.90;4.18;;;;;;;;;;5066913;28;20048;-73
2022/08/24 12:08:14;;;;;;;7.25;4.60;;;;;;;;;;5066385;28;20567;-73
2022/08/24 12:11:14;;;;;;;9.70;4.90;;;;;;;;;;5066338;28;20766;-75
2022/08/24 12:13:51;;;;;;;8.07;3.97;;;;;;;;;;5066663;28;20048;-74
2022/08/24 12:16:28;;;;;;;7.82;4.20;;;;;;;;;;5066409;28;20053;-73
2022/08/24 12:19:30;;;;;;;6.82;3.90;;;;;;;;;;5067202;28;20049;-72
2022/08/24 12:22:06;;;;;;;9.20;4.30;;;;;;;;;;5066198;28;20044;-73
2022/08/24 12:24:51;;;;;;;7.28;3.45;;;;;;;;;;5065855;28;20403;-76
2022/08/24 12:27:37;;;;;;;7.28;3.60;;;;;;;;;;5066782;28;20605;-73
2022/08/24 12:30:12;;;;;;;9.15;3.88;;;;;;;;;;5065916;28;20059;-73
2022/08/24 12:32:52;;;;;;;13.10;4.07;;;;;;;;;;5065755;28;20051;-73
2022/08/24 12:35:34;;;;;;;6.78;2.42;;;;;;;;;;5064050;28;20056;-72
2022/08/24 12:38:07;;;;;;;7.43;2.92;;;;;;;;;;5066063;28;20037;-72
2022/08/24 12:40:40;;;;;;;8.25;2.75;;;;;;;;;;5066565;28;20041;-73
2022/08/24 12:43:27;;;;;;;3.90;2.42;;;;;;;;;;5064590;28;20052;-73
2022/08/24 12:46:00;;;;;;;4.53;2.53;;;;;;;;;;5066652;28;20048;-73
2022/08/24 12:48:52;;;;;;;12.32;3.33;;;;;;;;;;5065937;28;20151;-73
2022/08/24 12:51:37;;;;;;;6.55;2.78;;;;;;;;;;5065918;28;20057;-73
2022/08/24 12:54:19;;;;;;;3.88;2.30;;;;;;;;;;5065895;28;20060;-75
2022/08/24 12:57:21;;;;;;;7.05;2.42;;;;;;;;;;5065044;28;20040;-73
2022/08/24 13:00:01;;;;;;;8.27;2.60;;;;;;;;;;5037166;28;20088;-73
2022/08/24 13:02:45;;;;;;;4.70;2.75;;;;;;;;;;5069664;28;20047;-73
2022/08/24 13:05:19;;;;;;;5.68;2.13;;;;;;;;;;5069324;28;20545;-76
2022/08/24 13:07:51;;;;;;;5.15;2.55;;;;;;;;;;5070207;28;20051;-73
2022/08/24 13:10:25;;;;;;;5.55;2.38;;;;;;;;;;5069200;28;20040;-73
2022/08/24 13:13:11;;;;;;;3.58;2.03;;;;;;;;;;5069340;28;21167;-74
2022/08/24 13:15:44;;;;;;;20.40;3.05;;;;;;;;;;5069513;28;20055;-74
2022/08/24 13:18:15;;;;;;;4.45;2.17;;;;;;;;;;5069351;28;20056;-73
2022/08/24 13:20:45;;;;;;;7.20;2.40;;;;;;;;;;5068746;28;20623;-73
2022/08/24 13:23:20;;;;;;;6.47;2.65;;;;;;;;;;5069369;28;20059;-72
2022/08/24 13:25:55;;;;;;;5.55;2.70;;;;;;;;;;5069185;28;20041;-74
2022/08/24 13:28:25;;;;;;;4.63;2.30;;;;;;;;;;5067504;28;20045;-73
2022/08/24 13:31:25;;;;;;;8.90;4.93;;;;;;;;;;5069025;28;20057;-73
2022/08/24 13:34:01;;;;;;;6.82;2.00;;;;;;;;;;5067902;28;20056;-74
2022/08/24 13:36:31;;;;;;;5.20;2.33;;;;;;;;;;5068986;28;20048;-74
2022/08/24 13:39:07;;;;;;;5.68;2.47;;;;;;;;;;5067064;28;20503;-74
2022/08/24 13:41:46;;;;;;;3.97;2.05;;;;;;;;;;5068965;28;20052;-72
2022/08/24 13:44:34;;;;;;;5.38;2.30;;;;;;;;;;5066850;28;20538;-74
2022/08/24 13:47:34;;;;;;;6.80;2.60;;;;;;;;;;5068771;28;21336;-73
2022/08/24 13:50:10;;;;;;;9.02;3.42;;;;;;;;;;5067487;28;20051;-74
2022/08/24 13:52:58;;;;;;;5.28;2.05;;;;;;;;;;5068599;28;20052;-73
2022/08/24 13:55:34;;;;;;;5.93;2.22;;;;;;;;;;5068919;28;20048;-73
2022/08/24 13:58:12;;;;;;;4.72;2.42;;;;;;;;;;5068030;28;20059;-74
2022/08/24 14:00:58;;;;;;;3.28;2.17;;;;;;;;;;5068660;28;20047;-73
2022/08/24 14:03:59;;;;;;;3.25;2.03;;;;;;;;;;5068079;28;20055;-74
2022/08/24 14:06:38;;;;;;;;;;;;;;;;;;5068731;28;20059;-74
2022/08/24 14:09:32;;;;;;;3.97;2.13;;;;;;;;;;5067994;28;19924;-74
2022/08/24 14:12:14;;;;;;;5.18;2.05;;;;;;;;;;5068174;28;20355;-73
2022/08/24 14:15:18;;;;;;;4.13;1.92;;;;;;;;;;5068384;28;20041;-73
2022/08/24 14:17:56;;;;;;;8.55;2.40;;;;;;;;;;5068310;28;20052;-74
2022/08/24 14:20:56;;;;;;;4.80;2.10;;;;;;;;;;5068816;28;20048;-74
2022/08/24 14:23:51;;;;;;;4.65;2.25;;;;;;;;;;5068192;28;20495;-74
2022/08/24 14:26:35;;;;;;;3.25;1.88;;;;;;;;;;5068103;28;20052;-74
2022/08/24 14:29:17;;;;;;;6.75;2.50;;;;;;;;;;5067997;28;20510;-75
2022/08/24 14:31:54;;;;;;;4.00;2.17;;;;;;;;;;5067849;28;20048;-74
2022/08/24 14:34:54;;;;;;;2.55;1.83;;;;;;;;;;5067479;28;20044;-75
2022/08/24 14:37:45;;;;;;;3.13;2.08;;;;;;;;;;5068113;28;20045;-75
2022/08/24 14:40:58;;;;;;;4.90;2.15;;;;;;;;;;5067331;28;20044;-74
2022/08/24 14:43:43;;;;;;;6.80;3.03;;;;;;;;;;5030989;28;20061;-75
2022/08/24 14:46:16;;;;;;;5.70;2.50;;;;;;;;;;5067704;28;20407;-75
2022/08/24 14:48:46;;;;;;;6.43;3.13;;;;;;;;;;5068015;28;20040;-74
2022/08/24 14:51:37;;;;;;;3.72;2.03;;;;;;;;;;5065890;28;20049;-74
2022/08/24 14:54:37;;;;;;;6.45;2.42;;;;;;;;;;5067244;28;20348;-74
2022/08/24 14:57:21;;;;;;;3.38;2.30;;;;;;;;;;5061709;28;20064;-74
2022/08/24 15:00:14;;;;;;;4.38;2.28;;;;;;;;;;5067062;28;20079;-74
2022/08/24 15:03:18;;;;;;;4.68;2.30;;;;;;;;;;5067320;28;20055;-75
2022/08/24 15:06:08;;;;;;;7.45;2.45;;;;;;;;;;5067567;28;20491;-73
2022/08/24 15:09:18;;;;;;;4.03;2.05;;;;;;;;;;5067696;28;20044;-74
2022/08/24 15:11:49;;;;;;;6.55;3.30;;;;;;;;;;5065347;28;20048;-75
2022/08/24 15:14:40;;;;;;;5.43;2.28;;;;;;;;;;5066790;28;20040;-74
2022/08/24 15:17:22;;;;;;;5.20;2.47;;;;;;;;;;5067554;28;20067;-74
2022/08/24 15:19:58;;;;;;;8.35;3.53;;;;;;;;;;5066068;28;20056;-77
2022/08/24 15:22:43;;;;;;;8.13;2.75;;;;;;;;;;5066425;28;20518;-75
2022/08/24 15:25:32;;;;;;;3.88;2.42;;;;;;;;;;5066976;28;20534;-75
2022/08/24 15:28:20;;;;;;;4.28;2.45;;;;;;;;;;5066388;28;20049;-75
2022/08/24 15:30:59;;;;;;;3.35;2.17;;;;;;;;;;5066772;28;20059;-74
2022/08/24 15:33:30;;;;;;;7.05;2.80;;;;;;;;;;5067481;28;20399;-75
2022/08/24 15:36:09;;;;;;;10.00;3.30;;;;;;;;;;5067604;28;20044;-76
2022/08/24 15:38:40;;;;;;;5.30;2.75;;;;;;;;;;5066678;28;20507;-75
2022/08/24 15:41:18;;;;;;;4.03;2.60;;;;;;;;;;5066912;28;20055;-74
2022/08/24 15:43:51;;;;;;;4.07;2.45;;;;;;;;;;5066317;28;20411;-74
2022/08/24 15:46:25;;;;;;;6.10;2.53;;;;;;;;;;5066383;28;20713;-74